createdAt,value
2022-10-11T00:00:18.309Z,102271.28
2022-10-11T00:00:49.866Z,102273.50
2022-10-11T00:01:21.417Z,102274.34
2022-10-11T00:01:53.012Z,102269.06
2022-10-11T00:02:26.482Z,102275.47
2022-10-11T00:02:58.685Z,102271.84
2022-10-11T00:03:30.210Z,102277.56
2022-10-11T00:04:01.768Z,102272.13
2022-10-11T00:04:33.261Z,102272.13
2022-10-11T00:05:05.200Z,102273.09
2022-10-11T00:05:37.131Z,102276.28
2022-10-11T00:06:10.466Z,102275.06
2022-10-11T00:06:43.581Z,102281.53
2022-10-11T00:07:15.037Z,102276.56
2022-10-11T00:07:46.522Z,102278.78
2022-10-11T00:08:18.184Z,102276.00
2022-10-11T00:08:49.767Z,102281.28
2022-10-11T00:09:21.290Z,102278.63
2022-10-11T00:09:52.754Z,102275.16
2022-10-11T00:10:24.514Z,102278.94
2022-10-11T00:10:58.067Z,102275.75
2022-10-11T00:11:29.541Z,102275.75
2022-10-11T00:12:01.066Z,102274.09
2022-10-11T00:12:33.315Z,102274.78
2022-10-11T00:13:05.102Z,102277.28
2022-10-11T00:13:37.021Z,102277.41
2022-10-11T00:14:08.959Z,102279.22
2022-10-11T00:14:40.427Z,102281.03
2022-10-11T00:15:14.860Z,102276.72
2022-10-11T00:15:46.459Z,102281.03
2022-10-11T00:16:17.912Z,102276.28
2022-10-11T00:16:49.463Z,102275.31
2022-10-11T00:17:21.166Z,102274.91
2022-10-11T00:17:52.680Z,102274.09
2022-10-11T00:18:24.724Z,102278.53
2022-10-11T00:18:56.304Z,102277.69
2022-10-11T00:19:27.791Z,102277.69
2022-10-11T00:19:59.747Z,102282.38
2022-10-11T00:20:31.298Z,102283.34
2022-10-11T00:21:06.119Z,102275.44
2022-10-11T00:21:37.678Z,102280.84
2022-10-11T00:22:09.199Z,102283.63
2022-10-11T00:22:41.455Z,102285.03
2022-10-11T00:23:13.170Z,102281.13
2022-10-11T00:23:44.811Z,102278.22
2022-10-11T00:24:16.880Z,102276.28
2022-10-11T00:24:48.391Z,102281.13
2022-10-11T00:25:20.033Z,102286.53
2022-10-11T00:26:02.514Z,102289.75
2022-10-11T00:26:34.360Z,102282.25
2022-10-11T00:27:05.844Z,102281.28
2022-10-11T00:27:37.538Z,102282.25
2022-10-11T00:28:09.267Z,102286.41
2022-10-11T00:28:41.370Z,102283.06
2022-10-11T00:29:13.112Z,102284.06
2022-10-11T00:29:44.759Z,102283.22
2022-10-11T00:30:16.284Z,102286.00
2022-10-11T00:30:47.787Z,102282.94
2022-10-11T00:31:19.435Z,102279.59
2022-10-11T00:31:51.088Z,102281.13
2022-10-11T00:32:22.710Z,102284.88
2022-10-11T00:32:54.249Z,102279.59
2022-10-11T00:33:25.780Z,102276.00
2022-10-11T00:33:57.433Z,102283.50
2022-10-11T00:34:28.922Z,102287.25
2022-10-11T00:35:06.408Z,102281.81
2022-10-11T00:35:41.333Z,102278.50
2022-10-11T00:36:17.147Z,102281.28
2022-10-11T00:36:48.657Z,102281.28
2022-10-11T00:37:20.505Z,102274.34
2022-10-11T00:37:52.014Z,102280.72
2022-10-11T00:38:23.497Z,102273.50
2022-10-11T00:38:55.023Z,102280.88
2022-10-11T00:39:26.507Z,102286.28
2022-10-11T00:39:58.218Z,102279.06
2022-10-11T00:40:29.849Z,102286.00
2022-10-11T00:41:01.407Z,102284.31
2022-10-11T00:41:33.093Z,102284.59
2022-10-11T00:42:04.714Z,102286.13
2022-10-11T00:42:36.273Z,102284.75
2022-10-11T00:43:21.268Z,102283.22
2022-10-11T00:44:14.250Z,102277.66
2022-10-11T00:44:47.136Z,102283.22
2022-10-11T00:45:27.449Z,102275.72
2022-10-11T00:45:59.105Z,102280.16
2022-10-11T00:46:31.397Z,102279.88
2022-10-11T00:47:09.395Z,102283.63
2022-10-11T00:47:40.982Z,102282.94
2022-10-11T00:48:17.879Z,102284.06
2022-10-11T00:48:53.317Z,102281.41
2022-10-11T00:49:34.793Z,102280.72
2022-10-11T00:50:09.503Z,102287.38
2022-10-11T00:50:41.707Z,102285.16
2022-10-11T00:51:38.482Z,102281.00
2022-10-11T00:52:31.875Z,102293.75
2022-10-11T00:53:08.027Z,102292.09
2022-10-11T00:53:39.940Z,102285.16
2022-10-11T00:54:14.091Z,102287.66
2022-10-11T00:54:46.104Z,102290.72
2022-10-11T00:55:18.962Z,102295.97
2022-10-11T00:55:55.111Z,102293.03
2022-10-11T00:56:39.130Z,102282.06
2022-10-11T00:57:14.546Z,102292.91
2022-10-11T00:57:48.760Z,102287.34
2022-10-11T00:58:21.327Z,102291.22
2022-10-11T00:58:53.715Z,102295.09
2022-10-11T00:59:29.040Z,102301.63
2022-10-11T01:00:00.577Z,102290.81
2022-10-11T01:00:32.212Z,102294.56
2022-10-11T01:01:04.122Z,102297.88
2022-10-11T01:01:35.833Z,102293.44
2022-10-11T01:02:10.975Z,102284.16
2022-10-11T01:02:43.066Z,102295.94
2022-10-11T01:03:16.391Z,102298.16
2022-10-11T01:03:47.875Z,102299.25
2022-10-11T01:04:19.456Z,102294.25
2022-10-11T01:05:05.641Z,102300.78
2022-10-11T01:05:42.618Z,102304.63
2022-10-11T01:06:14.337Z,102305.34
2022-10-11T01:06:46.089Z,102302.56
2022-10-11T01:07:19.357Z,102300.50
2022-10-11T01:07:50.865Z,102309.31
2022-10-11T01:08:23.216Z,102306.31
2022-10-11T01:08:54.823Z,102300.47
2022-10-11T01:09:26.697Z,102307.81
2022-10-11T01:09:58.296Z,102304.47
2022-10-11T01:10:29.880Z,102300.59
2022-10-11T01:11:01.880Z,102303.22
2022-10-11T01:11:35.645Z,102300.59
2022-10-11T01:12:15.050Z,102311.69
2022-10-11T01:13:07.267Z,102302.38
2022-10-11T01:13:57.412Z,102299.59
2022-10-11T01:14:43.152Z,102304.75
2022-10-11T01:15:22.221Z,102306.28
2022-10-11T01:16:17.501Z,102306.41
2022-10-11T01:17:09.628Z,102309.72
2022-10-11T01:18:13.899Z,102311.81
2022-10-11T01:18:51.441Z,102307.53
2022-10-11T01:19:43.802Z,102312.22
2022-10-11T01:20:32.278Z,102310.81
2022-10-11T01:21:12.471Z,102307.22
2022-10-11T01:21:54.735Z,102310.81
2022-10-11T01:22:41.387Z,102315.38
2022-10-11T01:23:56.840Z,102309.66
2022-10-11T01:25:05.524Z,102317.00
2022-10-11T01:26:07.759Z,102312.41
2022-10-11T01:27:11.896Z,102313.38
2022-10-11T01:28:03.277Z,102309.66
2022-10-11T01:28:59.087Z,102305.81
2022-10-11T01:29:36.495Z,102305.53
2022-10-11T01:30:27.590Z,102301.25
2022-10-11T01:31:07.043Z,102299.59
2022-10-11T01:31:49.765Z,102309.16
2022-10-11T01:32:25.820Z,102307.22
2022-10-11T01:33:06.013Z,102320.81
2022-10-11T01:33:41.916Z,102308.88
2022-10-11T01:34:55.901Z,102316.41
2022-10-11T01:36:04.364Z,102316.38
2022-10-11T01:36:45.339Z,102316.81
2022-10-11T01:37:24.314Z,102318.31
2022-10-11T01:38:03.180Z,102319.16
2022-10-11T01:38:38.321Z,102315.81
2022-10-11T01:39:13.557Z,102313.03
2022-10-11T01:40:37.282Z,102320.91
2022-10-11T01:41:15.875Z,102320.47
2022-10-11T01:41:50.685Z,102320.72
2022-10-11T01:42:22.904Z,102321.88
2022-10-11T01:42:55.314Z,102318.28
2022-10-11T01:43:27.314Z,102319.13
2022-10-11T01:44:00.563Z,102326.19
2022-10-11T01:44:34.372Z,102325.22
2022-10-11T01:45:08.554Z,102322.81
2022-10-11T01:45:41.570Z,102316.72
2022-10-11T01:46:13.328Z,102324.38
2022-10-11T01:46:45.003Z,102321.63
2022-10-11T01:47:20.760Z,102327.03
2022-10-11T01:48:05.793Z,102326.19
2022-10-11T01:48:50.924Z,102317.56
2022-10-11T01:49:22.639Z,102324.53
2022-10-11T01:49:59.748Z,102327.38
2022-10-11T01:50:40.535Z,102320.19
2022-10-11T01:51:12.047Z,102325.72
2022-10-11T01:51:49.097Z,102324.31
2022-10-11T01:52:21.468Z,102321.97
2022-10-11T01:52:52.993Z,102323.50
2022-10-11T01:53:46.105Z,102333.72
2022-10-11T01:54:21.290Z,102328.63
2022-10-11T01:55:09.698Z,102331.00
2022-10-11T01:55:55.448Z,102325.81
2022-10-11T01:56:45.085Z,102334.69
2022-10-11T01:57:22.145Z,102332.06
2022-10-11T01:57:54.227Z,102332.31
2022-10-11T01:58:48.598Z,102338.16
2022-10-11T01:59:39.297Z,102335.34
2022-10-11T02:00:20.455Z,102332.31
2022-10-11T02:01:00.490Z,102332.31
2022-10-11T02:01:50.619Z,102334.13
2022-10-11T02:02:34.126Z,102336.47
2022-10-11T02:03:17.448Z,102330.13
2022-10-11T02:03:56.756Z,102333.41
2022-10-11T02:04:43.121Z,102336.88
2022-10-11T02:05:20.690Z,102338.53
2022-10-11T02:05:57.050Z,102329.56
2022-10-11T02:06:37.517Z,102332.31
2022-10-11T02:07:30.011Z,102336.75
2022-10-11T02:08:23.260Z,102341.44
2022-10-11T02:09:04.339Z,102345.75
2022-10-11T02:09:50.173Z,102337.28
2022-10-11T02:10:28.107Z,102337.97
2022-10-11T02:11:26.859Z,102346.72
2022-10-11T02:12:04.763Z,102340.78
2022-10-11T02:12:40.304Z,102341.75
2022-10-11T02:13:41.697Z,102338.88
2022-10-11T02:14:16.994Z,102340.28
2022-10-11T02:14:50.970Z,102344.69
2022-10-11T02:15:23.045Z,102344.53
2022-10-11T02:15:55.756Z,102338.28
2022-10-11T02:16:51.453Z,102327.50
2022-10-11T02:17:28.011Z,102342.72
2022-10-11T02:18:02.081Z,102341.50
2022-10-11T02:18:37.339Z,102336.75
2022-10-11T02:19:09.399Z,102345.22
2022-10-11T02:19:46.915Z,102341.06
2022-10-11T02:20:24.541Z,102339.66
2022-10-11T02:21:00.704Z,102342.47
2022-10-11T02:21:34.776Z,102340.78
2022-10-11T02:22:08.751Z,102347.19
2022-10-11T02:22:43.354Z,102343.03
2022-10-11T02:23:23.694Z,102347.03
2022-10-11T02:24:03.562Z,102343.56
2022-10-11T02:24:36.623Z,102344.38
2022-10-11T02:25:10.985Z,102346.06
2022-10-11T02:25:44.235Z,102347.41
2022-10-11T02:26:16.956Z,102347.34
2022-10-11T02:26:54.586Z,102343.59
2022-10-11T02:27:30.815Z,102345.53
2022-10-11T02:28:05.955Z,102343.44
2022-10-11T02:28:39.691Z,102345.22
2022-10-11T02:29:12.639Z,102347.16
2022-10-11T02:29:45.029Z,102339.38
2022-10-11T02:30:16.922Z,102345.22
2022-10-11T02:30:49.874Z,102342.47
2022-10-11T02:31:22.205Z,102340.66
2022-10-11T02:31:55.283Z,102342.19
2022-10-11T02:32:27.529Z,102343.88
2022-10-11T02:32:59.148Z,102349.66
2022-10-11T02:33:38.283Z,102340.53
2022-10-11T02:34:18.042Z,102343.16
2022-10-11T02:34:54.753Z,102338.88
2022-10-11T02:35:29.888Z,102343.16
2022-10-11T02:36:08.095Z,102345.78
2022-10-11T02:37:04.606Z,102339.69
2022-10-11T02:37:59.223Z,102344.84
2022-10-11T02:38:45.359Z,102343.81
2022-10-11T02:39:41.731Z,102345.75
2022-10-11T02:40:25.901Z,102343.78
2022-10-11T02:41:03.407Z,102345.03
2022-10-11T02:41:39.583Z,102350.63
2022-10-11T02:42:15.999Z,102355.88
2022-10-11T02:43:03.939Z,102350.19
2022-10-11T02:43:54.157Z,102347.28
2022-10-11T02:44:37.131Z,102352.94
2022-10-11T02:45:33.846Z,102348.50
2022-10-11T02:46:07.651Z,102349.47
2022-10-11T02:46:40.603Z,102350.19
2022-10-11T02:47:12.383Z,102351.84
2022-10-11T02:47:44.634Z,102353.25
2022-10-11T02:48:16.299Z,102355.88
2022-10-11T02:48:48.553Z,102342.16
2022-10-11T02:49:20.871Z,102344.91
2022-10-11T02:49:53.123Z,102345.63
2022-10-11T02:50:24.767Z,102348.00
2022-10-11T02:50:59.400Z,102347.03
2022-10-11T02:51:31.644Z,102339.66
2022-10-11T02:52:05.446Z,102341.59
2022-10-11T02:52:37.031Z,102341.31
2022-10-11T02:53:08.742Z,102348.94
2022-10-11T02:53:40.251Z,102336.06
2022-10-11T02:54:11.720Z,102345.75
2022-10-11T02:54:43.212Z,102348.25
2022-10-11T02:55:14.728Z,102351.06
2022-10-11T02:55:46.988Z,102344.66
2022-10-11T02:56:18.978Z,102343.81
2022-10-11T02:56:50.650Z,102341.59
2022-10-11T02:57:22.229Z,102347.28
2022-10-11T02:57:53.702Z,102348.25
2022-10-11T02:58:25.562Z,102346.59
2022-10-11T02:58:57.049Z,102342.72
2022-10-11T02:59:28.550Z,102344.91
2022-10-11T03:00:00.260Z,102346.84
2022-10-11T03:00:32.077Z,102347.63
2022-10-11T03:01:03.635Z,102346.00
2022-10-11T03:01:35.595Z,102350.44
2022-10-11T03:02:07.676Z,102355.44
2022-10-11T03:02:39.318Z,102352.97
2022-10-11T03:03:10.961Z,102347.84
2022-10-11T03:03:42.539Z,102353.63
2022-10-11T03:04:14.257Z,102351.97
2022-10-11T03:04:45.798Z,102357.22
2022-10-11T03:05:17.533Z,102358.88
2022-10-11T03:05:49.101Z,102359.72
2022-10-11T03:06:20.988Z,102359.84
2022-10-11T03:06:52.515Z,102358.63
2022-10-11T03:07:24.071Z,102350.28
2022-10-11T03:07:55.983Z,102360.25
2022-10-11T03:08:30.170Z,102356.66
2022-10-11T03:09:01.700Z,102355.81
2022-10-11T03:09:33.161Z,102359.97
2022-10-11T03:10:05.267Z,102351.69
2022-10-11T03:10:37.802Z,102351.84
2022-10-11T03:11:09.279Z,102355.03
2022-10-11T03:11:40.764Z,102363.19
2022-10-11T03:12:12.347Z,102355.88
2022-10-11T03:12:43.854Z,102353.94
2022-10-11T03:13:18.251Z,102349.78
2022-10-11T03:13:50.084Z,102357.66
2022-10-11T03:14:21.663Z,102356.13
2022-10-11T03:14:53.208Z,102365.81
2022-10-11T03:15:24.717Z,102358.63
2022-10-11T03:16:03.332Z,102359.34
2022-10-11T03:16:35.539Z,102366.97
2022-10-11T03:17:31.162Z,102360.78
2022-10-11T03:17:58.763Z,102368.91
2022-10-11T03:18:30.716Z,102367.34
2022-10-11T03:19:02.335Z,102365.81
2022-10-11T03:19:33.872Z,102364.16
2022-10-11T03:20:06.530Z,102368.84
2022-10-11T03:20:38.576Z,102366.59
2022-10-11T03:21:10.200Z,102365.50
2022-10-11T03:21:41.776Z,102366.25
2022-10-11T03:22:13.399Z,102368.25
2022-10-11T03:22:45.135Z,102366.59
2022-10-11T03:23:16.708Z,102369.94
2022-10-11T03:23:48.368Z,102373.66
2022-10-11T03:24:19.845Z,102367.56
2022-10-11T03:24:51.302Z,102368.25
2022-10-11T03:25:22.858Z,102369.47
2022-10-11T03:25:54.482Z,102363.63
2022-10-11T03:26:26.059Z,102367.69
2022-10-11T03:26:57.747Z,102364.09
2022-10-11T03:27:29.248Z,102370.94
2022-10-11T03:28:00.723Z,102371.03
2022-10-11T03:28:32.252Z,102373.81
2022-10-11T03:29:03.858Z,102369.50
2022-10-11T03:29:35.478Z,102371.16
2022-10-11T03:30:08.980Z,102372.25
2022-10-11T03:30:40.631Z,102374.50
2022-10-11T03:31:12.116Z,102376.22
2022-10-11T03:31:43.653Z,102380.28
2022-10-11T03:32:15.302Z,102372.13
2022-10-11T03:32:46.786Z,102382.41
2022-10-11T03:33:18.781Z,102375.25
2022-10-11T03:33:50.428Z,102376.94
2022-10-11T03:34:21.984Z,102375.00
2022-10-11T03:34:53.714Z,102377.78
2022-10-11T03:35:25.203Z,102378.47
2022-10-11T03:35:56.721Z,102375.53
2022-10-11T03:36:28.221Z,102371.56
2022-10-11T03:36:59.725Z,102372.97
2022-10-11T03:37:31.194Z,102383.59
2022-10-11T03:38:02.696Z,102378.28
2022-10-11T03:38:34.405Z,102383.78
2022-10-11T03:39:06.010Z,102379.09
2022-10-11T03:39:38.030Z,102376.47
2022-10-11T03:40:10.764Z,102378.28
2022-10-11T03:40:43.194Z,102381.88
2022-10-11T03:41:14.752Z,102381.03
2022-10-11T03:41:46.243Z,102372.69
2022-10-11T03:42:17.782Z,102385.44
2022-10-11T03:42:49.292Z,102381.28
2022-10-11T03:43:20.770Z,102379.50
2022-10-11T03:43:52.604Z,102382.69
2022-10-11T03:44:24.280Z,102384.63
2022-10-11T03:44:57.185Z,102383.91
2022-10-11T03:45:28.786Z,102382.13
2022-10-11T03:46:00.409Z,102387.44
2022-10-11T03:46:31.941Z,102387.97
2022-10-11T03:47:03.513Z,102385.44
2022-10-11T03:47:36.144Z,102384.88
2022-10-11T03:48:08.317Z,102388.22
2022-10-11T03:48:39.846Z,102386.53
2022-10-11T03:49:11.625Z,102384.63
2022-10-11T03:49:43.875Z,102386.75
2022-10-11T03:50:15.528Z,102386.75
2022-10-11T03:50:48.650Z,102390.09
2022-10-11T03:51:20.129Z,102388.66
2022-10-11T03:51:51.628Z,102387.97
2022-10-11T03:52:23.272Z,102391.03
2022-10-11T03:52:54.859Z,102380.28
2022-10-11T03:53:26.780Z,102384.31
2022-10-11T03:53:58.351Z,102387.91
2022-10-11T03:54:29.938Z,102389.69
2022-10-11T03:55:01.619Z,102393.28
2022-10-11T03:55:33.290Z,102390.53
2022-10-11T03:56:08.541Z,102393.66
2022-10-11T03:56:40.539Z,102391.97
2022-10-11T03:57:12.122Z,102388.13
2022-10-11T03:57:43.651Z,102388.84
2022-10-11T03:58:15.176Z,102391.47
2022-10-11T03:58:46.705Z,102398.31
2022-10-11T03:59:18.185Z,102398.31
2022-10-11T03:59:50.064Z,102392.13
2022-10-11T04:00:21.679Z,102391.69
2022-10-11T04:00:53.875Z,102402.31
2022-10-11T04:01:25.468Z,102410.19
2022-10-11T04:01:57.302Z,102403.78
2022-10-11T04:02:28.918Z,102405.19
2022-10-11T04:03:00.504Z,102404.72
2022-10-11T04:03:32.091Z,102403.28
2022-10-11T04:04:04.182Z,102404.25
2022-10-11T04:04:35.708Z,102402.44
2022-10-11T04:05:08.084Z,102402.09
2022-10-11T04:05:39.709Z,102408.56
2022-10-11T04:06:11.560Z,102406.41
2022-10-11T04:06:43.086Z,102402.59
2022-10-11T04:07:14.558Z,102405.09
2022-10-11T04:07:46.131Z,102403.53
2022-10-11T04:08:18.001Z,102406.16
2022-10-11T04:08:49.592Z,102406.53
2022-10-11T04:09:21.144Z,102400.44
2022-10-11T04:09:52.782Z,102409.03
2022-10-11T04:10:24.276Z,102408.06
2022-10-11T04:10:56.049Z,102404.63
2022-10-11T04:11:27.619Z,102410.34
2022-10-11T04:11:59.260Z,102411.78
2022-10-11T04:12:30.943Z,102408.44
2022-10-11T04:13:02.436Z,102405.94
2022-10-11T04:13:33.908Z,102407.63
2022-10-11T04:14:05.460Z,102410.69
2022-10-11T04:14:36.925Z,102414.31
2022-10-11T04:15:09.114Z,102412.63
2022-10-11T04:15:41.376Z,102411.06
2022-10-11T04:16:12.932Z,102412.88
2022-10-11T04:16:44.443Z,102410.94
2022-10-11T04:17:15.963Z,102408.91
2022-10-11T04:17:47.455Z,102415.97
2022-10-11T04:18:19.248Z,102412.97
2022-10-11T04:18:50.720Z,102406.28
2022-10-11T04:19:22.322Z,102412.13
2022-10-11T04:19:53.930Z,102413.81
2022-10-11T04:20:25.562Z,102418.38
2022-10-11T04:20:57.107Z,102412.50
2022-10-11T04:21:28.603Z,102413.59
2022-10-11T04:22:00.095Z,102415.25
2022-10-11T04:22:32.260Z,102408.19
2022-10-11T04:23:03.830Z,102420.97
2022-10-11T04:23:35.539Z,102417.38
2022-10-11T04:24:07.460Z,102415.97
2022-10-11T04:24:39.099Z,102420.00
2022-10-11T04:25:10.691Z,102417.38
2022-10-11T04:25:42.178Z,102415.00
2022-10-11T04:26:13.755Z,102417.88
2022-10-11T04:26:45.271Z,102423.84
2022-10-11T04:27:16.833Z,102418.34
2022-10-11T04:27:48.753Z,102425.50
2022-10-11T04:28:20.488Z,102422.06
2022-10-11T04:28:52.102Z,102426.22
2022-10-11T04:29:25.826Z,102422.63
2022-10-11T04:30:00.451Z,102419.56
2022-10-11T04:30:32.086Z,102423.00
2022-10-11T04:31:05.179Z,102417.63
2022-10-11T04:31:36.702Z,102428.41
2022-10-11T04:32:08.452Z,102419.31
2022-10-11T04:32:39.965Z,102421.81
2022-10-11T04:33:12.084Z,102421.81
2022-10-11T04:33:43.582Z,102426.81
2022-10-11T04:34:15.160Z,102422.06
2022-10-11T04:34:46.932Z,102422.19
2022-10-11T04:35:18.598Z,102428.88
2022-10-11T04:35:55.058Z,102423.88
2022-10-11T04:36:26.718Z,102425.53
2022-10-11T04:36:58.288Z,102430.56
2022-10-11T04:37:29.783Z,102434.03
2022-10-11T04:38:01.239Z,102429.13
2022-10-11T04:38:32.707Z,102431.63
2022-10-11T04:39:04.591Z,102433.56
2022-10-11T04:39:37.063Z,102433.78
2022-10-11T04:40:09.139Z,102426.25
2022-10-11T04:40:40.932Z,102424.47
2022-10-11T04:41:13.838Z,102426.03
2022-10-11T04:41:45.435Z,102425.53
2022-10-11T04:42:16.991Z,102434.97
2022-10-11T04:42:50.520Z,102430.66
2022-10-11T04:43:22.050Z,102429.50
2022-10-11T04:43:53.542Z,102432.97
2022-10-11T04:44:25.015Z,102433.69
2022-10-11T04:44:56.519Z,102428.53
2022-10-11T04:45:28.038Z,102433.69
2022-10-11T04:45:59.572Z,102435.84
2022-10-11T04:46:31.083Z,102436.75
2022-10-11T04:47:02.642Z,102434.50
2022-10-11T04:47:34.132Z,102430.34
2022-10-11T04:48:06.072Z,102434.88
2022-10-11T04:48:37.642Z,102436.75
2022-10-11T04:49:09.135Z,102442.00
2022-10-11T04:49:40.589Z,102430.34
2022-10-11T04:50:12.113Z,102437.97
2022-10-11T04:50:44.813Z,102439.06
2022-10-11T04:51:21.218Z,102436.31
2022-10-11T04:51:53.014Z,102436.06
2022-10-11T04:52:25.896Z,102430.56
2022-10-11T04:52:57.603Z,102436.31
2022-10-11T04:53:29.165Z,102436.44
2022-10-11T04:54:01.029Z,102432.13
2022-10-11T04:54:32.655Z,102440.13
2022-10-11T04:55:04.555Z,102435.94
2022-10-11T04:55:36.618Z,102442.25
2022-10-11T04:56:11.518Z,102435.34
2022-10-11T04:56:43.175Z,102439.88
2022-10-11T04:57:14.646Z,102444.88
2022-10-11T04:57:46.224Z,102442.63
2022-10-11T04:58:17.773Z,102435.22
2022-10-11T04:58:49.555Z,102437.22
2022-10-11T04:59:21.117Z,102438.91
2022-10-11T04:59:52.583Z,102438.91
2022-10-11T05:00:24.164Z,102443.09
2022-10-11T05:00:56.081Z,102442.63
2022-10-11T05:01:27.639Z,102439.19
2022-10-11T05:01:59.268Z,102441.81
2022-10-11T05:02:30.809Z,102447.91
2022-10-11T05:03:02.426Z,102441.81
2022-10-11T05:03:34.097Z,102451.47
2022-10-11T05:04:05.668Z,102438.09
2022-10-11T05:04:37.359Z,102442.84
2022-10-11T05:05:09.369Z,102435.94
2022-10-11T05:05:41.043Z,102438.69
2022-10-11T05:06:13.143Z,102445.72
2022-10-11T05:06:45.132Z,102447.28
2022-10-11T05:07:16.917Z,102442.00
2022-10-11T05:07:48.445Z,102440.00
2022-10-11T05:08:20.304Z,102444.53
2022-10-11T05:08:52.016Z,102446.31
2022-10-11T05:09:23.921Z,102439.53
2022-10-11T05:09:55.602Z,102439.16
2022-10-11T05:10:27.132Z,102434.75
2022-10-11T05:11:00.601Z,102437.00
2022-10-11T05:11:32.321Z,102442.38
2022-10-11T05:12:04.123Z,102440.34
2022-10-11T05:12:35.619Z,102447.06
2022-10-11T05:13:07.478Z,102442.63
2022-10-11T05:13:39.013Z,102442.28
2022-10-11T05:14:10.460Z,102446.81
2022-10-11T05:14:42.038Z,102436.75
2022-10-11T05:15:13.966Z,102445.38
2022-10-11T05:15:45.522Z,102447.06
2022-10-11T05:16:17.683Z,102449.91
2022-10-11T05:16:49.659Z,102452.06
2022-10-11T05:17:21.331Z,102448.34
2022-10-11T05:17:52.812Z,102445.38
2022-10-11T05:18:24.751Z,102449.91
2022-10-11T05:18:56.248Z,102450.41
2022-10-11T05:19:27.974Z,102453.75
2022-10-11T05:19:59.537Z,102452.31
2022-10-11T05:20:31.019Z,102450.66
2022-10-11T05:21:04.080Z,102447.78
2022-10-11T05:21:35.638Z,102449.66
2022-10-11T05:22:07.160Z,102448.72
2022-10-11T05:22:38.690Z,102452.78
2022-10-11T05:23:10.349Z,102457.78
2022-10-11T05:23:42.143Z,102450.03
2022-10-11T05:24:13.621Z,102446.31
2022-10-11T05:24:45.134Z,102447.28
2022-10-11T05:25:16.834Z,102451.59
2022-10-11T05:25:48.480Z,102450.63
2022-10-11T05:26:20.362Z,102452.06
2022-10-11T05:26:51.894Z,102453.97
2022-10-11T05:27:23.394Z,102450.63
2022-10-11T05:27:54.871Z,102452.31
2022-10-11T05:28:26.885Z,102448.72
2022-10-11T05:28:58.588Z,102450.63
2022-10-11T05:29:30.239Z,102450.63
2022-10-11T05:30:01.979Z,102452.53
2022-10-11T05:30:33.500Z,102451.13
2022-10-11T05:31:05.192Z,102450.63
2022-10-11T05:31:36.696Z,102453.03
2022-10-11T05:32:08.196Z,102451.00
2022-10-11T05:32:39.749Z,102459.59
2022-10-11T05:33:11.962Z,102453.97
2022-10-11T05:33:43.615Z,102453.97
2022-10-11T05:34:15.274Z,102459.00
2022-10-11T05:34:46.862Z,102462.34
2022-10-11T05:35:18.310Z,102460.88
2022-10-11T05:35:49.900Z,102463.03
2022-10-11T05:36:21.431Z,102463.50
2022-10-11T05:36:53.007Z,102458.38
2022-10-11T05:37:24.810Z,102464.34
2022-10-11T05:37:56.300Z,102459.91
2022-10-11T05:38:27.946Z,102458.72
2022-10-11T05:38:59.448Z,102459.31
2022-10-11T05:39:30.939Z,102466.88
2022-10-11T05:40:02.552Z,102455.75
2022-10-11T05:40:34.111Z,102457.41
2022-10-11T05:41:06.648Z,102458.50
2022-10-11T05:41:38.154Z,102458.16
2022-10-11T05:42:10.128Z,102464.00
2022-10-11T05:42:41.705Z,102461.50
2022-10-11T05:43:13.303Z,102460.66
2022-10-11T05:43:45.848Z,102469.25
2022-10-11T05:44:17.429Z,102459.94
2022-10-11T05:44:48.886Z,102464.75
2022-10-11T05:45:20.465Z,102459.47
2022-10-11T05:45:52.069Z,102470.19
2022-10-11T05:46:23.559Z,102469.25
2022-10-11T05:46:55.072Z,102473.78
2022-10-11T05:47:26.679Z,102469.00
2022-10-11T05:47:59.090Z,102473.78
2022-10-11T05:48:30.811Z,102473.06
2022-10-11T05:49:02.272Z,102469.75
2022-10-11T05:49:33.773Z,102474.03
2022-10-11T05:50:05.935Z,102467.00
2022-10-11T05:50:40.516Z,102470.09
2022-10-11T05:51:12.472Z,102467.22
2022-10-11T05:51:43.974Z,102463.53
2022-10-11T05:52:19.809Z,102465.78
2022-10-11T05:52:51.640Z,102472.84
2022-10-11T05:53:23.218Z,102473.06
2022-10-11T05:53:54.747Z,102473.78
2022-10-11T05:54:30.044Z,102473.06
2022-10-11T05:55:03.249Z,102472.72
2022-10-11T05:55:39.164Z,102472.47
2022-10-11T05:56:22.345Z,102476.91
2022-10-11T05:56:53.843Z,102475.59
2022-10-11T05:57:25.300Z,102480.25
2022-10-11T05:57:57.418Z,102482.50
2022-10-11T05:58:28.925Z,102487.41
2022-10-11T05:59:02.564Z,102483.13
2022-10-11T05:59:35.131Z,102480.47
2022-10-11T06:00:07.188Z,102480.25
2022-10-11T06:00:43.673Z,102485.72
2022-10-11T06:01:23.461Z,102486.09
2022-10-11T06:01:55.298Z,102487.16
2022-10-11T06:02:26.868Z,102479.63
2022-10-11T06:02:58.387Z,102486.34
2022-10-11T06:03:29.846Z,102484.81
2022-10-11T06:04:01.369Z,102484.56
2022-10-11T06:04:37.087Z,102488.03
2022-10-11T06:05:09.056Z,102481.22
2022-10-11T06:05:40.822Z,102481.44
2022-10-11T06:06:12.362Z,102480.00
2022-10-11T06:06:43.849Z,102483.47
2022-10-11T06:07:15.366Z,102481.19
2022-10-11T06:07:46.860Z,102484.31
2022-10-11T06:08:18.473Z,102481.91
2022-10-11T06:08:50.082Z,102488.97
2022-10-11T06:09:21.694Z,102484.28
2022-10-11T06:09:53.303Z,102478.22
2022-10-11T06:10:25.534Z,102482.88
2022-10-11T06:10:56.976Z,102481.78
2022-10-11T06:11:28.480Z,102483.72
2022-10-11T06:11:59.952Z,102488.38
2022-10-11T06:12:31.802Z,102484.78
2022-10-11T06:13:03.346Z,102480.13
2022-10-11T06:13:35.793Z,102477.03
2022-10-11T06:14:08.632Z,102486.47
2022-10-11T06:14:40.426Z,102486.69
2022-10-11T06:15:11.987Z,102482.28
2022-10-11T06:15:43.579Z,102491.22
2022-10-11T06:16:16.110Z,102482.13
2022-10-11T06:16:47.672Z,102486.03
2022-10-11T06:17:19.269Z,102489.03
2022-10-11T06:17:51.269Z,102486.16
2022-10-11T06:18:22.783Z,102480.66
2022-10-11T06:18:57.758Z,102484.03
2022-10-11T06:19:29.220Z,102487.72
2022-10-11T06:20:00.726Z,102487.38
2022-10-11T06:20:32.242Z,102490.09
2022-10-11T06:21:04.078Z,102488.28
2022-10-11T06:21:35.647Z,102491.75
2022-10-11T06:22:07.104Z,102490.41
2022-10-11T06:22:39.066Z,102490.94
2022-10-11T06:23:10.824Z,102489.72
2022-10-11T06:23:42.311Z,102486.84
2022-10-11T06:24:14.551Z,102491.19
2022-10-11T06:24:46.829Z,102491.13
2022-10-11T06:25:18.527Z,102495.19
2022-10-11T06:26:06.156Z,102494.22
2022-10-11T06:26:38.266Z,102494.97
2022-10-11T06:27:09.957Z,102502.47
2022-10-11T06:27:41.737Z,102506.16
2022-10-11T06:28:13.328Z,102503.06
2022-10-11T06:28:45.130Z,102497.47
2022-10-11T06:29:16.760Z,102501.25
2022-10-11T06:29:48.312Z,102499.97
2022-10-11T06:30:19.860Z,102498.97
2022-10-11T06:30:51.546Z,102508.97